Wederom door onbekende storing windmeter kunnen wij tijdelijk niet beschikken over actuele windsnelheden / gevoelstemperatuur

Update & Upgrade Weerstation Parkstad


Cloud cover More information Parkstad Weather Satellite


Precipitateradar More information Parkstad Rain Snow Radar


Thunderstorms More information Parkstad Lighntning


24/7 Weathercamera More information Parkstad Weathercam


Natural Fire Risk
CBI







The weather does not pose an immediate danger in Parkstad.    There are no Weather-warnings

Nearby METAR Reports

   
EHAM - Amsterdam
Updated: 15-05-2021 02:25
Mostly Cloudy  
Mostly Cloudy  
   Wind: NW 7.4 km/h
Wind: NW 7.4 km/h
Temperature: 9°C
Wind Chill: 8°C
Dew Point: 7°C
Humidity: 87%
Barometer: 1007 hPa
Satellite images: Mostly Cloudy
Visibility: More than 10 km
Cloud details: Partly Cloudy 396 m,
Mostly Cloudy 488 m
EHAM 150025Z 31004KT 280V350 9999 SCT013 BKN016 09/07 Q1007 NOSIG
EBAW - Antwerpen
Updated: 15-05-2021 02:20
Mostly Cloudy  
Mostly Cloudy  
   Wind: North 5.6 km/h
Wind: North 5.6 km/h
Temperature: 9°C
Wind Chill: 8°C
Dew Point: 7°C
Humidity: 87%
Barometer: 1007 hPa
Satellite images: Mostly Cloudy
Visibility: More than 10 km
Cloud details: Mostly Cloudy 1402 m
EBAW 150020Z AUTO 36003KT 300V040 9999 // BKN046/// 09/07 Q1007
EGLL - London
Updated: 15-05-2021 02:20
Partly Cloudy  
Partly Cloudy  
   Wind: South 9.3 km/h
Wind: South 9.3 km/h
Temperature: 10°C
Wind Chill: 9°C
Dew Point: 7°C
Humidity: 82%
Barometer: 1006 hPa
Satellite images: Partly Cloudy
Visibility: More than 10 km
Cloud details: Partly Cloudy 1280 m
EGLL 150020Z AUTO 19005KT 9999 SCT042 10/07 Q1006 NOSIG
ELLX - Luxemburg
Updated: 15-05-2021 02:20
Mostly Cloudy  
Mostly Cloudy  
   Wind: SW 16.7 km/h
Wind: SW 16.7 km/h
Temperature: 8°C
Wind Chill: 5°C
Dew Point: 7°C
Humidity: 93%
Barometer: 1008 hPa
Satellite images: Mostly Cloudy
Visibility: More than 10 km
Cloud details: Few Clouds 427 m,
Partly Cloudy 518 m,
Mostly Cloudy 579 m
ELLX 150020Z AUTO 22009KT 9999 FEW014/// SCT017/// BKN019/// 08/07 Q1008 NOSIG
EDDT - Berlijn
Updated: 09-11-2020 07:50
Obsolete
Mist, Overcast  
Mist, Overcast  
   Wind: East 11.1 km/h
Wind: East 11.1 km/h
Temperature: 6°C
Wind Chill: 4°C
Dew Point: 5°C
Humidity: 93%
Barometer: 1027 hPa
Satellite images: Overcast
Visibility: 3 km
Cloud details: Overcast 91 m
EDDT 090650Z 09006KT 050V120 3000 BR OVC003 06/05 Q1027
EDDM - München
Updated: 15-05-2021 02:20
Mostly Cloudy  
Mostly Cloudy  
   Wind: WSW 20.4 km/h
Wind: WSW 20.4 km/h
Temperature: 10°C
Wind Chill: 7°C
Dew Point: 7°C
Humidity: 82%
Barometer: 1011 hPa
Satellite images: Mostly Cloudy
Visibility: More than 10 km
Cloud details: Few Clouds 610 m,
Mostly Cloudy 1372 m
EDDM 150020Z 24011KT 9999 FEW020 BKN045 10/07 Q1011 NOSIG
LFPO - Parijs
Updated: 15-05-2021 02:30
Light Rain, Mostly Cloudy  
Light Rain, Mostly Cloudy  
   Wind: South 7.4 km/h
Wind: South 7.4 km/h
Temperature: 11°C
Dew Point: 9°C
Humidity: 88%
Barometer: 1009 hPa
Satellite images: Mostly Cloudy
Visibility: More than 10 km
Cloud details: Few Clouds 1006 m,
Mostly Cloudy 1524 m
LFPO 150030Z 19004KT 9999 -RA FEW033 BKN050 11/09 Q1009 NOSIG
EDDL - Düsseldorf
Updated: 15-05-2021 02:50
Clear  
Clear  
   Wind: SSE 9.3 km/h
Wind: SSE 9.3 km/h
Temperature: 8°C
Wind Chill: 7°C
Dew Point: 7°C
Humidity: 93%
Barometer: 1007 hPa
Visibility: More than 10 km
Cloud details: Clear
EDDL 150050Z 15005KT CAVOK 08/07 Q1007 NOSIG
EDDK - Köln/Bonn Duitsland
Updated: 15-05-2021 02:50
Clear  
Clear  
   Wind: SSE 7.4 km/h
Wind: SSE 7.4 km/h
Temperature: 9°C
Wind Chill: 8°C
Dew Point: 7°C
Humidity: 87%
Barometer: 1007 hPa
Visibility: More than 10 km
Cloud details: Clear
EDDK 150050Z 15004KT CAVOK 09/07 Q1007 NOSIG
TNCA - Oranjestad Aruba
Updated: 15-05-2021 02:00
Few Clouds  
Few Clouds  
   Wind: East 31.5 km/h
Wind: East 31.5 km/h
Temperature: 27°C
Heat Index: 30°C
Dew Point: 24°C
Humidity: 84%
Barometer: 1011 hPa
Satellite images: Few Clouds
Visibility: More than 10 km
Cloud details: Few Clouds 549 m
TNCA 150000Z 08017KT 9999 FEW018 27/24 Q1011 NOSIG
TNCC - Willemstad Curacao
Updated: 15-05-2021 02:00
Few Clouds  
Few Clouds  
   Wind: East 22.2 km/h
Wind: East 22.2 km/h
Temperature: 27°C
Heat Index: 29°C
Dew Point: 23°C
Humidity: 79%
Barometer: 1012 hPa
Satellite images: Few Clouds
Visibility: More than 10 km
Cloud details: Few Clouds 549 m
TNCC 150000Z 09012KT 9999 FEW018 27/23 Q1012 NOSIG=
LEAL - La Nucia Spanje
Updated: 15-05-2021 02:30
Clear  
Clear  
   Wind: WNW 5.6 km/h
Wind: WNW 5.6 km/h
Temperature: 15°C
Dew Point: 12°C
Humidity: 82%
Barometer: 1017 hPa
Visibility: More than 10 km
Cloud details: Clear
LEAL 150030Z 30003KT CAVOK 15/12 Q1017 NOSIG

Script developed by  Saratoga-weather.org Adapted for the template by  Weerstation Leuven

You find our weather info also at:

Het Weer Aktueel

WOW Nederland KNMI

Vereniging voor Weerkunde en Klimatologie

UK Met Office Weather Observation Website (WOW)

WeatherCloud

Weather Underground

Awekas

MeteoMap.Cloud

HAMweather, WeatherForYou, PWS Weather

Citizen Weather Observer Program (CWOP)

Equipment we use:

Hardware supplier
Weerhuisje

Weather-station
Vantage Pro2+ UV

WeatherServer's
alix3d2 & wl330n

WeatherProgram's
Smartbedded

Satellite NOAA's
WRX137 & KX137

Satellite Eumetsat
Ayecka SR1 & Triax

Lightning detector
Boltek StormTracker

Provider
F-Service

Weerhuisje

Vantage Pro2+ UV

alix3d2 & wl330n

Smartbedded

WRX137 & KX137

Ayecka SR1 & Triax

Boltek StormTracker

F-Service